Time;durP1;ratioP1;P1;durP2;ratioP2;P2;SDS_P1;SDS_P2;PMS_P1;PMS_P2;Temp;Humidity;BMP_temperature;BMP_pressure;BME280_temperature;BME280_humidity;BME280_pressure;Samples;Min_cycle;Max_cycle;Signal;HPM_P1;HPM_P2
2022/06/12 00:02:01;;;;;;;3.65;1.92;;;19.30;99.90;;;19.81;81.18;101591.78;5076805;29;20536;-80
2022/06/12 00:04:33;;;;;;;4.13;1.92;;;19.30;99.90;;;19.81;81.31;101591.78;5075837;29;20059;-80
2022/06/12 00:07:06;;;;;;;4.68;1.90;;;19.30;99.90;;;19.81;81.05;101594.41;5076164;29;20072;-79
2022/06/12 00:09:39;;;;;;;3.33;1.75;;;19.30;99.90;;;19.79;80.43;101595.28;5076314;29;20061;-79
2022/06/12 00:12:12;;;;;;;4.65;2.20;;;19.30;99.90;;;19.81;79.19;101597.94;5074739;29;20563;-80
2022/06/12 00:14:44;;;;;;;3.22;1.30;;;19.30;99.90;;;19.88;78.17;101589.19;5075695;29;20053;-80
2022/06/12 00:17:16;;;;;;;2.72;1.58;;;19.40;99.90;;;19.93;77.05;101598.06;5075325;29;20550;-81
2022/06/12 00:19:49;;;;;;;2.45;1.30;;;19.40;99.90;;;19.98;77.05;101606.06;5074804;29;20136;-80
2022/06/12 00:22:21;;;;;;;2.05;1.30;;;19.40;99.90;;;20.00;76.85;101601.66;5075001;29;20176;-81
2022/06/12 00:24:55;;;;;;;2.42;1.17;;;19.50;99.90;;;20.02;76.96;101597.28;5075075;29;20135;-81
2022/06/12 00:27:27;;;;;;;2.17;1.02;;;19.50;99.90;;;20.04;76.36;101595.53;5074909;29;20057;-80
2022/06/12 00:29:59;;;;;;;2.33;1.40;;;19.50;99.90;;;20.04;76.06;101596.41;5074649;29;20144;-81
2022/06/12 00:32:31;;;;;;;1.60;1.20;;;19.50;99.90;;;20.03;76.12;101599.06;5073532;29;20056;-80
2022/06/12 00:35:06;;;;;;;1.98;1.00;;;19.50;99.90;;;20.00;76.32;101599.00;5072295;29;20051;-80
2022/06/12 00:37:38;;;;;;;2.55;1.00;;;19.50;99.90;;;19.97;76.47;101596.34;5072231;29;20052;-81
2022/06/12 00:40:14;;;;;;;1.27;1.05;;;19.50;99.90;;;19.92;76.67;101596.28;5072103;29;20063;-81
2022/06/12 00:42:49;;;;;;;2.65;1.20;;;19.40;99.90;;;19.89;76.95;101590.09;5072307;29;20076;-81
2022/06/12 00:45:39;;;;;;;2.35;0.85;;;19.40;99.90;;;19.84;77.21;101602.41;5072328;29;20411;-81
2022/06/12 00:48:17;;;;;;;2.03;1.13;;;19.40;99.90;;;19.78;77.56;101598.81;5070181;29;20140;-81
2022/06/12 00:50:58;;;;;;;2.60;1.33;;;19.30;99.90;;;19.73;77.57;101605.81;5070647;29;20063;-80
2022/06/12 00:53:34;;;;;;;1.75;1.10;;;19.20;99.90;;;19.66;78.10;101601.34;5070056;29;20048;-81
2022/06/12 00:56:15;;;;;;;1.83;1.25;;;19.20;99.90;;;19.62;78.34;101607.44;5069365;29;20059;-81
2022/06/12 00:58:51;;;;;;;;;;;19.20;99.90;;;19.58;78.55;101603.03;5078073;29;20135;-81
2022/06/12 01:01:31;;;;;;;2.95;1.40;;;19.10;99.90;;;19.57;78.77;101610.91;5075357;29;19927;-80
2022/06/12 01:07:05;;;;;;;2.28;1.10;;;19.10;99.90;;;19.47;78.96;101602.84;5076463;29;20072;-80
2022/06/12 01:09:42;;;;;;;2.40;1.10;;;19.00;99.90;;;19.43;79.49;101602.78;5075229;29;20049;-81
2022/06/12 01:12:22;;;;;;;2.78;1.13;;;19.00;99.90;;;19.38;79.52;101604.53;5074835;29;20063;-81
2022/06/12 01:14:59;;;;;;;2.15;1.17;;;19.00;99.90;;;19.34;79.68;101606.22;5075203;29;20127;-81
2022/06/12 01:17:31;;;;;;;1.70;1.08;;;18.90;99.90;;;19.31;79.83;101600.94;5074979;29;20076;-80
2022/06/12 01:20:11;;;;;;;2.13;1.20;;;18.90;99.90;;;19.28;79.93;101605.28;5075553;29;20151;-80
2022/06/12 01:23:34;;;;;;;5.20;1.80;;;18.80;99.90;;;19.24;80.09;101599.97;5076270;29;20052;-81
2022/06/12 01:26:50;;;;;;;3.33;1.30;;;18.80;99.90;;;19.23;80.16;101607.84;5016146;29;20052;-80
2022/06/12 01:29:29;;;;;;;2.88;1.35;;;18.80;99.90;;;19.17;80.46;101600.75;5074797;29;20058;-81
2022/06/12 01:32:10;;;;;;;3.50;1.25;;;18.80;99.90;;;19.13;80.67;101609.50;5077193;29;20072;-80
2022/06/12 01:34:50;;;;;;;4.10;1.30;;;18.70;99.90;;;19.06;80.88;101605.03;5077362;29;20052;-81
2022/06/12 01:37:35;;;;;;;2.05;1.35;;;18.60;99.90;;;18.99;81.22;101603.16;5077777;29;20112;-81
2022/06/12 01:40:16;;;;;;;3.40;1.40;;;18.60;99.90;;;18.92;81.09;101601.31;5077682;29;20080;-80
2022/06/12 01:42:54;;;;;;;2.97;1.60;;;18.50;99.90;;;18.82;81.31;101600.28;5077740;29;20049;-80
2022/06/12 01:45:39;;;;;;;2.90;1.45;;;18.50;99.90;;;18.75;81.49;101603.72;5077455;29;20049;-80
2022/06/12 01:48:25;;;;;;;2.50;1.25;;;18.30;99.90;;;18.68;81.60;101608.03;5077078;29;20567;-79
2022/06/12 01:51:09;;;;;;;1.60;1.25;;;18.30;99.90;;;18.63;81.94;101612.31;5082356;29;20049;-81
2022/06/12 01:53:56;;;;;;;2.78;1.35;;;18.20;99.90;;;18.58;82.27;101621.94;5082317;29;20083;-81
2022/06/12 01:56:37;;;;;;;3.47;1.40;;;18.20;99.90;;;18.52;82.44;101613.91;5078187;29;20052;-82
2022/06/12 01:59:18;;;;;;;5.00;1.63;;;18.10;99.90;;;18.43;82.83;101616.41;5078043;29;20083;-81
2022/06/12 02:01:56;;;;;;;;;;;18.10;99.90;;;18.42;83.36;101612.00;5081506;29;20063;-81
2022/06/12 02:04:34;;;;;;;2.25;1.23;;;18.00;99.90;;;18.37;83.27;101611.03;5082702;29;19924;-81
2022/06/12 02:07:14;;;;;;;2.17;1.45;;;18.00;99.90;;;18.32;83.44;101608.34;5082207;29;20125;-81
2022/06/12 02:09:52;;;;;;;3.22;1.38;;;17.90;99.90;;;18.28;83.63;101613.53;5082735;29;20052;-81
2022/06/12 02:15:25;;;;;;;2.92;1.50;;;17.80;99.90;;;18.15;84.00;101618.59;5082360;29;20056;-80
2022/06/12 02:18:07;;;;;;;3.63;1.50;;;17.80;99.90;;;18.10;84.21;101603.53;5083890;29;20068;-80
2022/06/12 02:20:45;;;;;;;3.50;1.55;;;17.70;99.90;;;18.05;84.46;101611.38;5084091;29;20075;-80
2022/06/12 02:23:22;;;;;;;1.63;1.50;;;17.70;99.90;;;18.01;84.74;101606.94;5084184;29;20454;-81
2022/06/12 02:25:57;;;;;;;2.10;1.33;;;17.60;99.90;;;18.01;85.12;101606.94;5083959;29;20054;-80
2022/06/12 02:28:37;;;;;;;2.65;1.42;;;17.60;99.90;;;17.97;85.04;101602.44;5084453;29;20507;-80
2022/06/12 02:31:14;;;;;;;1.90;1.35;;;17.60;99.90;;;17.93;85.05;101605.00;5084842;29;20095;-80
2022/06/12 02:33:57;;;;;;;2.22;1.40;;;17.50;99.90;;;17.88;85.32;101611.09;5084978;29;20049;-80
2022/06/12 02:36:33;;;;;;;3.08;1.70;;;17.50;99.90;;;17.84;85.35;101608.38;5085890;29;20048;-80
2022/06/12 02:39:11;;;;;;;1.83;1.42;;;17.50;99.90;;;17.80;85.53;101606.53;5085811;29;20112;-81
2022/06/12 02:41:50;;;;;;;2.08;1.50;;;17.40;99.90;;;17.75;85.69;101608.22;5086340;29;20083;-81
2022/06/12 02:44:28;;;;;;;3.17;1.63;;;17.40;99.90;;;17.73;85.76;101612.56;5086770;29;20049;-81
2022/06/12 02:47:08;;;;;;;3.78;1.77;;;17.40;99.90;;;17.69;85.63;101613.34;5088217;29;20060;-79
2022/06/12 02:49:44;;;;;;;3.10;1.88;;;17.30;99.90;;;17.63;85.56;101607.09;5091946;29;20111;-81
2022/06/12 02:52:25;;;;;;;3.08;1.75;;;17.20;99.90;;;17.62;85.92;101607.06;5091512;29;20062;-81
2022/06/12 02:55:11;;;;;;;4.05;1.70;;;17.20;99.90;;;17.60;85.85;101608.75;5089836;29;20052;-81
2022/06/12 02:57:53;;;;;;;2.58;2.00;;;17.20;99.90;;;17.55;85.74;101600.78;5077554;29;20068;-80
2022/06/12 03:00:33;;;;;;;3.08;1.67;;;17.20;99.90;;;17.53;85.85;101606.88;5077663;29;20057;-80
2022/06/12 03:03:15;;;;;;;3.28;1.75;;;17.10;99.90;;;17.47;85.86;101601.47;5080789;29;20124;-80
2022/06/12 03:05:54;;;;;;;2.97;1.75;;;17.10;99.90;;;17.41;86.17;101607.53;5083030;29;20055;-80
2022/06/12 03:08:32;;;;;;;4.32;2.10;;;17.10;99.90;;;17.37;86.12;101610.97;5082915;29;20056;-80
2022/06/12 03:11:09;;;;;;;2.63;1.80;;;17.00;99.90;;;17.35;86.32;101599.50;5083590;29;20052;-79
2022/06/12 03:13:42;;;;;;;2.50;1.60;;;17.00;99.90;;;17.34;86.32;101605.63;5083509;29;20113;-81
2022/06/12 03:16:18;;;;;;;3.20;1.80;;;17.00;99.90;;;17.30;86.13;101604.69;5083778;29;20052;-80
2022/06/12 03:18:54;;;;;;;4.47;1.92;;;17.00;99.90;;;17.27;86.00;101604.59;5082836;29;20112;-80
2022/06/12 03:21:41;;;;;;;3.92;2.10;;;16.90;99.90;;;17.20;85.92;101612.34;5083248;29;20063;-81
2022/06/12 03:24:29;;;;;;;3.22;1.98;;;16.90;99.90;;;17.17;86.17;101615.84;5083583;29;20052;-80
2022/06/12 03:27:19;;;;;;;3.42;2.03;;;16.80;99.90;;;17.15;86.32;101614.00;5083435;29;20088;-79
2022/06/12 03:30:05;;;;;;;3.13;1.85;;;16.80;99.90;;;17.11;86.55;101614.81;5083474;29;20056;-81
2022/06/12 03:32:47;;;;;;;5.45;2.40;;;16.70;99.90;;;17.08;86.62;101616.53;5083459;29;20048;-81
2022/06/12 03:35:34;;;;;;;3.65;1.98;;;16.70;99.90;;;17.05;86.75;101618.22;5083330;29;20080;-82
2022/06/12 03:38:18;;;;;;;3.20;1.92;;;16.70;99.90;;;17.02;86.94;101613.78;5083073;29;20048;-80
2022/06/12 03:41:03;;;;;;;4.50;2.35;;;16.70;99.90;;;17.03;87.08;101615.53;5082785;29;20056;-81
2022/06/12 03:43:39;;;;;;;5.07;2.10;;;16.70;99.90;;;17.05;87.40;101621.72;5083598;29;20076;-80
2022/06/12 03:46:23;;;;;;;3.55;2.08;;;16.70;99.90;;;17.07;87.38;101624.38;5083641;29;20088;-81
2022/06/12 03:49:03;;;;;;;3.38;1.92;;;16.70;99.90;;;17.07;87.32;101629.66;5083104;29;20112;-81
2022/06/12 03:51:41;;;;;;;2.15;1.85;;;16.70;99.90;;;17.05;87.13;101627.00;5082743;29;20073;-81
2022/06/12 03:54:25;;;;;;;3.20;1.88;;;16.70;99.90;;;17.02;87.31;101624.31;5277953;23;20409;-71
2022/06/12 04:00:04;;;;;;;4.95;1.95;;;16.70;99.90;;;17.02;87.80;101624.31;5145332;28;20058;-71
2022/06/12 04:02:37;;;;;;;5.32;2.30;;;16.70;99.90;;;17.04;87.77;101622.59;5140369;28;20543;-72
2022/06/12 04:05:17;;;;;;;5.07;2.08;;;16.70;99.90;;;17.06;87.82;101627.88;5146140;28;20507;-72
2022/06/12 04:07:54;;;;;;;4.22;2.10;;;16.70;99.90;;;17.09;88.04;101626.22;5146219;28;20195;-72
2022/06/12 04:10:33;;;;;;;5.03;2.22;;;16.80;99.90;;;17.13;88.02;101629.78;5145785;28;20046;-72
2022/06/12 04:13:11;;;;;;;3.55;2.20;;;16.70;99.90;;;17.17;87.91;101634.28;5146100;28;20050;-72
2022/06/12 04:15:48;;;;;;;4.93;2.22;;;16.80;99.90;;;17.21;87.73;101627.31;5140931;28;20480;-72
2022/06/12 04:18:21;;;;;;;4.50;2.22;;;16.90;99.90;;;17.26;87.60;101633.56;5140034;28;20547;-71
2022/06/12 04:20:58;;;;;;;5.72;2.20;;;16.90;99.90;;;17.28;87.57;101643.31;5142213;28;20076;-71
2022/06/12 04:23:40;;;;;;;3.60;1.90;;;16.90;99.90;;;17.32;87.32;101645.13;5145491;28;20133;-71
2022/06/12 04:26:24;;;;;;;5.00;2.20;;;16.90;99.90;;;17.31;87.10;101638.09;5145644;28;20055;-72
2022/06/12 04:29:00;;;;;;;5.10;2.25;;;17.00;99.90;;;17.33;87.29;101648.66;5145724;28;20451;-72
2022/06/12 04:31:35;;;;;;;4.20;2.45;;;17.00;99.90;;;17.35;87.31;101641.69;5145720;28;20556;-72
2022/06/12 04:34:18;;;;;;;6.10;2.70;;;17.00;99.90;;;17.36;87.58;101636.44;5145825;28;20051;-72
2022/06/12 04:36:54;;;;;;;5.25;2.40;;;17.00;99.90;;;17.42;87.73;101643.59;5145593;28;20133;-73
2022/06/12 04:39:35;;;;;;;4.65;2.33;;;17.10;99.90;;;17.49;87.99;101640.22;5145085;28;20086;-71
2022/06/12 04:42:10;;;;;;;3.83;2.20;;;17.10;99.90;;;17.58;88.23;101645.66;5145308;28;20051;-72
2022/06/12 04:44:43;;;;;;;6.63;2.25;;;17.20;99.90;;;17.73;88.63;101649.47;5145210;28;20057;-73
2022/06/12 04:47:19;;;;;;;6.53;2.47;;;17.30;99.90;;;18.07;89.75;101653.63;5145447;28;20053;-73
2022/06/12 04:49:53;;;;;;;8.75;3.58;;;17.50;99.90;;;18.69;89.97;101662.59;5145112;28;20484;-72
2022/06/12 04:52:27;;;;;;;9.05;2.97;;;18.00;99.90;;;19.50;85.34;101654.91;5145174;28;20046;-72
2022/06/12 04:54:59;;;;;;;7.88;2.88;;;18.60;99.90;;;20.40;78.85;101662.88;5145075;28;20141;-72
2022/06/12 04:57:33;;;;;;;7.03;2.65;;;19.40;99.90;;;21.29;73.48;101664.41;5145380;28;20133;-73
2022/06/12 05:00:09;;;;;;;6.47;2.83;;;20.10;99.90;;;22.08;68.18;101663.75;5144785;28;20419;-71
2022/06/12 05:02:41;;;;;;;6.90;2.60;;;20.90;99.90;;;22.79;64.73;101665.53;5145028;28;20409;-74
2022/06/12 05:05:13;;;;;;;4.38;2.28;;;21.50;99.90;;;23.38;61.50;101656.50;5145265;28;20644;-72
2022/06/12 05:07:45;;;;;;;7.50;2.55;;;22.10;99.70;;;23.88;58.44;101663.38;5145171;28;20105;-72
2022/06/12 05:10:18;;;;;;;6.70;2.58;;;22.60;98.10;;;24.30;56.90;101656.84;5144785;28;20086;-72
2022/06/12 05:12:51;;;;;;;9.00;2.50;;;23.00;96.90;;;24.78;55.63;101660.00;5144907;28;20058;-73
2022/06/12 05:15:24;;;;;;;8.35;2.50;;;23.40;95.90;;;25.23;53.99;101656.84;5144669;28;20082;-72
2022/06/12 05:17:56;;;;;;;7.53;2.70;;;23.80;94.50;;;25.69;51.21;101652.69;5144882;28;20046;-72
2022/06/12 05:20:34;;;;;;;6.05;2.45;;;24.30;92.50;;;26.15;49.84;101652.03;5144467;28;20051;-72
2022/06/12 05:23:07;;;;;;;6.97;2.38;;;24.80;91.20;;;26.52;48.50;101656.75;5145177;28;20055;-73
2022/06/12 05:25:41;;;;;;;7.68;2.72;;;25.10;89.30;;;26.79;47.71;101652.69;5144448;28;20051;-72
2022/06/12 05:28:16;;;;;;;7.65;2.22;;;25.40;87.20;;;27.02;47.44;101658.50;5144652;28;20137;-73
2022/06/12 05:30:48;;;;;;;8.45;2.20;;;25.60;86.20;;;27.14;47.06;101651.19;5133810;28;20495;-73
2022/06/12 05:33:20;;;;;;;7.25;2.60;;;25.70;85.00;;;27.44;46.35;101652.31;5129051;28;20055;-73
2022/06/12 05:35:52;;;;;;;8.38;2.50;;;25.90;83.60;;;27.83;46.04;101654.13;5138085;28;20131;-73
2022/06/12 05:38:25;;;;;;;8.93;2.38;;;26.30;82.70;;;28.17;44.64;101663.16;5148722;28;20068;-73
2022/06/12 05:40:57;;;;;;;8.20;2.55;;;26.70;80.70;;;28.42;43.52;101656.28;5148571;28;20192;-73
2022/06/12 05:43:30;;;;;;;6.50;2.25;;;26.90;78.00;;;28.65;43.12;101655.69;5148769;28;20057;-73
2022/06/12 05:46:03;;;;;;;7.68;2.47;;;27.20;77.20;;;28.88;43.06;101658.63;5148763;28;20137;-73
2022/06/12 05:48:35;;;;;;;8.38;2.45;;;27.30;76.40;;;29.17;41.82;101660.53;5148510;28;20069;-73
2022/06/12 05:51:08;;;;;;;7.88;2.65;;;27.60;74.80;;;29.40;41.62;101657.16;5148563;28;20062;-73
2022/06/12 05:53:44;;;;;;;5.63;2.03;;;27.80;73.80;;;29.60;40.84;101656.56;5148534;28;20061;-73
2022/06/12 05:56:20;;;;;;;10.50;2.28;;;28.10;72.80;;;29.79;40.56;101664.94;5128948;29;20098;-73
2022/06/12 05:58:54;;;;;;;5.85;2.30;;;28.20;71.60;;;29.84;40.18;101665.69;5128493;29;20057;-72
2022/06/12 06:01:26;;;;;;;6.68;2.00;;;28.30;70.60;;;29.89;40.70;101665.56;5128333;29;20054;-72
2022/06/12 06:03:58;;;;;;;6.63;2.30;;;28.40;70.80;;;29.97;39.82;101667.06;5128653;29;20476;-72
2022/06/12 06:06:34;;;;;;;6.57;2.33;;;28.40;70.00;;;29.97;40.03;101659.00;5128190;29;20135;-72
2022/06/12 06:09:07;;;;;;;7.30;2.33;;;28.50;69.90;;;30.21;39.46;101669.91;5128093;29;20089;-72
2022/06/12 06:11:40;;;;;;;6.22;2.17;;;28.60;69.30;;;30.52;39.10;101665.25;5128317;29;20051;-74
2022/06/12 06:14:14;;;;;;;9.70;2.33;;;28.80;68.40;;;30.70;38.29;101663.75;5128387;29;20504;-72
2022/06/12 06:16:47;;;;;;;7.00;2.42;;;29.10;67.50;;;30.82;37.94;101666.94;5128544;29;20504;-71
2022/06/12 06:19:19;;;;;;;11.93;2.47;;;29.20;67.00;;;30.93;37.82;101662.94;5128082;29;20489;-72
2022/06/12 06:21:51;;;;;;;5.90;2.40;;;29.30;66.20;;;31.06;37.43;101666.94;5127952;29;20050;-72
2022/06/12 06:24:24;;;;;;;6.85;2.17;;;29.40;66.00;;;31.28;37.12;101668.84;5105644;29;20048;-71
2022/06/12 06:26:56;;;;;;;7.25;2.45;;;29.60;65.20;;;31.24;36.91;101657.34;5104118;29;20062;-72
2022/06/12 06:29:29;;;;;;;8.30;2.47;;;29.60;64.60;;;31.24;36.86;101661.84;5096309;29;20497;-72
2022/06/12 06:32:01;;;;;;;7.05;2.03;;;29.60;64.80;;;31.10;36.39;101654.22;5112228;29;20127;-69
2022/06/12 06:34:33;;;;;;;8.98;2.35;;;29.50;63.80;;;31.21;36.57;101665.47;5108431;29;20058;-68
2022/06/12 06:37:08;;;;;;;9.57;2.30;;;29.50;64.30;;;31.23;36.67;101657.31;5108439;29;20138;-69
2022/06/12 06:39:42;;;;;;;7.53;1.92;;;29.60;64.20;;;31.36;36.28;101672.13;5107865;29;20051;-68
2022/06/12 06:42:15;;;;;;;10.30;2.33;;;29.60;63.80;;;31.37;35.70;101673.91;5108332;29;20056;-69
2022/06/12 06:47:38;;;;;;;7.63;1.92;;;29.70;63.70;;;31.62;35.73;101668.41;5097000;29;20067;-69
2022/06/12 06:50:14;;;;;;;6.30;2.10;;;29.80;62.80;;;31.70;35.71;101673.53;5107579;29;20130;-69
2022/06/12 06:52:48;;;;;;;9.90;2.35;;;29.80;62.60;;;31.49;35.57;101670.72;5108149;29;20500;-69
2022/06/12 06:55:20;;;;;;;9.82;2.00;;;29.70;61.90;;;31.33;35.15;101674.94;5111726;28;20082;-69
2022/06/12 06:57:53;;;;;;;8.75;1.80;;;29.50;61.40;;;31.29;35.59;101671.47;5146328;28;20129;-70
2022/06/12 07:00:30;;;;;;;8.27;2.30;;;29.50;62.70;;;31.01;35.48;101668.91;5116665;29;20083;-67
2022/06/12 07:03:02;;;;;;;5.88;1.98;;;29.40;61.40;;;30.30;37.55;101680.34;5120869;29;20051;-66
2022/06/12 07:05:36;;;;;;;6.85;1.90;;;29.00;63.00;;;29.50;38.25;101673.00;5122732;29;20138;-66
2022/06/12 07:08:09;;;;;;;;;;;28.40;63.30;;;28.68;39.23;101674.38;5108096;29;20465;-66
2022/06/12 07:10:42;;;;;;;5.63;1.80;;;27.80;63.70;;;28.05;40.99;101675.94;5107453;29;20013;-66
2022/06/12 07:13:15;;;;;;;5.45;1.83;;;27.20;65.20;;;27.66;42.30;101669.69;5107597;29;20653;-66
2022/06/12 07:15:49;;;;;;;6.88;1.95;;;26.80;66.80;;;27.38;42.78;101671.19;5120895;29;20048;-66
2022/06/12 07:18:22;;;;;;;8.65;1.80;;;26.60;67.50;;;27.16;43.42;101670.75;5146619;28;20418;-67
2022/06/12 07:20:59;;;;;;;4.80;1.75;;;26.30;68.30;;;26.96;43.65;101666.63;5147303;28;20512;-66
2022/06/12 07:23:34;;;;;;;4.88;1.77;;;26.10;68.50;;;26.83;43.78;101674.94;5147356;28;20062;-68
2022/06/12 07:26:16;;;;;;;5.72;1.80;;;25.90;68.90;;;26.79;44.78;101685.66;5146916;28;20146;-70
2022/06/12 07:28:49;;;;;;;7.97;2.22;;;25.80;70.70;;;26.75;44.41;101681.31;5147201;28;20403;-69
2022/06/12 07:31:24;;;;;;;7.40;1.90;;;25.80;69.80;;;26.60;44.41;101681.56;5147047;28;20178;-68
2022/06/12 07:33:56;;;;;;;6.60;1.73;;;25.70;69.80;;;26.52;44.21;101679.03;5147088;28;20485;-69
2022/06/12 07:36:30;;;;;;;2.90;1.38;;;25.60;69.60;;;26.55;44.44;101667.41;5147215;28;20241;-68
2022/06/12 07:39:03;;;;;;;6.13;2.10;;;25.60;69.80;;;26.56;44.24;101670.97;5146712;28;20086;-69
2022/06/12 07:41:36;;;;;;;5.32;1.70;;;25.60;69.90;;;26.45;44.62;101673.81;5146923;28;20053;-70
2022/06/12 07:44:09;;;;;;;5.97;1.92;;;25.50;70.10;;;26.52;44.81;101679.03;5143581;28;20055;-69
2022/06/12 07:46:43;;;;;;;5.90;1.88;;;25.50;70.40;;;26.48;44.15;101673.78;5126709;29;20047;-68
2022/06/12 07:49:16;;;;;;;6.00;1.80;;;25.50;70.00;;;26.30;45.03;101684.75;5123889;29;20054;-69
2022/06/12 07:51:49;;;;;;;7.93;1.63;;;25.40;70.40;;;26.38;44.94;101681.03;5122009;28;20497;-71
2022/06/12 07:54:22;;;;;;;6.40;1.70;;;25.40;70.90;;;26.46;44.89;101678.25;5126613;28;20051;-70
2022/06/12 07:56:54;;;;;;;5.30;1.70;;;25.40;70.80;;;26.61;44.62;101678.00;5126280;29;20044;-70
2022/06/12 07:59:27;;;;;;;6.30;1.80;;;25.40;70.80;;;26.88;43.96;101681.97;5135254;28;20057;-68
2022/06/12 08:02:01;;;;;;;6.35;2.10;;;25.60;70.40;;;27.19;43.57;101673.34;5137796;28;20043;-69
2022/06/12 08:04:34;;;;;;;5.80;1.85;;;25.80;70.20;;;27.56;42.79;101676.13;5139896;28;20047;-69
2022/06/12 08:07:06;;;;;;;8.07;1.98;;;26.10;69.80;;;27.80;41.28;101690.84;5128477;28;20047;-71
2022/06/12 08:09:38;;;;;;;6.63;2.08;;;26.30;68.20;;;27.93;40.83;101675.34;5128557;28;20419;-66
2022/06/12 08:12:11;;;;;;;9.35;1.65;;;26.30;67.70;;;28.30;40.27;101689.66;5146404;28;20475;-69
2022/06/12 08:14:43;;;;;;;4.35;1.70;;;26.50;67.30;;;28.52;38.79;101683.75;5146386;28;20058;-69
2022/06/12 08:17:17;;;;;;;5.22;1.67;;;26.60;66.30;;;28.86;38.46;101675.69;5146050;28;20042;-69
2022/06/12 08:22:44;;;;;;;4.65;1.25;;;26.80;65.70;;;29.89;36.39;101682.56;5123673;28;20058;-69
2022/06/12 08:25:16;;;;;;;4.97;1.30;;;27.10;64.60;;;30.42;35.25;101688.00;5125140;29;20055;-70
2022/06/12 08:27:49;;;;;;;6.32;1.13;;;27.30;64.20;;;31.02;33.35;101681.44;5126105;29;20500;-69
2022/06/12 08:30:21;;;;;;;4.75;1.40;;;27.60;62.30;;;31.65;32.67;101672.81;5125548;29;20055;-70
2022/06/12 08:32:57;;;;;;;4.47;1.20;;;27.90;61.80;;;32.57;31.33;101678.06;5125978;29;20055;-70
2022/06/12 08:35:32;;;;;;;5.85;1.45;;;28.30;61.10;;;33.50;30.15;101682.00;5126207;29;20548;-70
2022/06/12 08:38:04;;;;;;;5.05;1.33;;;28.80;60.20;;;34.69;28.06;101684.25;5125888;29;20416;-70
2022/06/12 08:40:45;;;;;;;5.93;1.50;;;29.50;58.40;;;35.74;26.40;101682.19;5125759;29;20055;-71
2022/06/12 08:43:28;;;;;;;4.13;1.20;;;30.50;56.40;;;36.39;25.96;101678.41;5125631;29;20677;-71
2022/06/12 08:46:09;;;;;;;5.25;1.50;;;31.10;55.90;;;36.95;24.54;101671.34;5125636;29;20130;-70
2022/06/12 08:48:51;;;;;;;4.90;1.10;;;31.80;54.10;;;37.73;23.84;101669.09;5125715;29;20549;-71
2022/06/12 08:51:28;;;;;;;5.07;1.42;;;32.70;53.00;;;37.98;23.18;101671.09;5125821;29;20051;-70
2022/06/12 08:54:05;;;;;;;4.80;1.40;;;33.10;52.20;;;37.99;23.29;101681.00;5125556;29;20562;-66
2022/06/12 08:56:44;;;;;;;5.57;1.30;;;33.30;51.20;;;38.36;22.73;101677.69;5125732;29;20047;-70
2022/06/12 08:59:23;;;;;;;5.40;1.05;;;33.70;50.60;;;38.68;22.69;101672.75;5125523;29;20051;-70
2022/06/12 09:01:55;;;;;;;5.47;1.40;;;34.10;50.30;;;38.97;22.11;101668.84;5125517;29;20046;-69
2022/06/12 09:04:30;;;;;;;7.47;1.40;;;34.30;49.40;;;39.13;22.19;101665.03;5125500;29;20047;-70
2022/06/12 09:07:13;;;;;;;4.05;1.20;;;34.40;49.40;;;39.21;22.03;101668.09;5125400;29;20051;-70
2022/06/12 09:09:52;;;;;;;3.33;1.10;;;34.60;49.00;;;39.47;21.29;101666.22;5125280;28;20075;-70
2022/06/12 09:12:32;;;;;;;4.43;1.35;;;34.70;48.50;;;39.59;20.83;101659.84;5125087;29;20061;-70
2022/06/12 09:15:15;;;;;;;4.00;0.90;;;34.80;47.60;;;39.41;21.00;101661.19;5125105;29;20134;-71
2022/06/12 09:18:04;;;;;;;4.63;0.95;;;34.80;47.40;;;38.99;21.02;101653.25;5125005;29;20127;-69
2022/06/12 09:20:47;;;;;;;5.00;1.20;;;34.70;46.60;;;38.50;21.21;101659.41;5125215;29;20079;-70
2022/06/12 09:23:34;;;;;;;3.25;1.00;;;34.40;46.50;;;38.11;21.67;101645.78;5124982;29;20066;-71
2022/06/12 09:26:18;;;;;;;4.57;1.00;;;34.20;47.10;;;37.75;22.39;101644.50;5124923;29;20098;-70
2022/06/12 09:29:01;;;;;;;4.63;0.95;;;34.10;47.60;;;37.28;22.77;101634.84;5125172;29;20066;-69
2022/06/12 09:31:44;;;;;;;5.30;1.30;;;33.90;47.60;;;36.63;23.62;101634.41;5124740;29;20058;-70
2022/06/12 09:34:30;;;;;;;4.10;0.88;;;33.70;47.70;;;35.61;24.84;101630.50;5125215;29;20062;-70
2022/06/12 09:40:29;;;;;;;2.03;0.80;;;32.50;48.50;;;32.90;27.72;101619.03;5124814;29;20059;-70
2022/06/12 09:43:10;;;;;;;2.88;1.00;;;31.60;50.00;;;32.10;28.59;101626.97;5124884;29;20637;-70
2022/06/12 09:45:52;;;;;;;4.07;1.20;;;31.00;50.60;;;31.37;29.61;101620.03;5124961;29;20051;-70
2022/06/12 09:48:40;;;;;;;3.70;0.93;;;30.40;51.50;;;31.00;29.90;101617.81;5124866;29;20091;-70
2022/06/12 09:51:26;;;;;;;3.95;1.08;;;29.90;51.70;;;30.73;30.41;101612.53;5124999;29;20081;-69
2022/06/12 09:54:33;;;;;;;6.20;1.17;;;29.60;52.10;;;30.31;30.38;101620.25;5148582;23;20054;-80
2022/06/12 09:57:17;;;;;;;5.03;0.93;;;29.30;51.90;;;29.92;30.03;101627.81;5129074;29;20150;-81
2022/06/12 09:59:56;;;;;;;2.08;0.70;;;29.00;51.40;;;29.71;30.10;101618.63;5115195;29;20056;-81
2022/06/12 10:02:37;;;;;;;1.88;0.60;;;28.80;51.40;;;29.56;29.18;101614.63;5112269;29;20505;-82
2022/06/12 10:05:16;;;;;;;1.88;0.35;;;28.60;50.40;;;29.39;28.75;101612.44;5099622;29;20080;-81
2022/06/12 10:07:59;;;;;;;1.70;0.50;;;28.50;50.00;;;29.38;28.91;101613.34;5091052;29;20052;-79
2022/06/12 10:10:40;;;;;;;2.25;0.60;;;28.40;50.00;;;29.30;27.92;101604.66;5090338;29;20056;-81
2022/06/12 10:13:17;;;;;;;2.42;0.60;;;28.40;48.80;;;29.20;27.81;101600.47;5089961;29;20139;-81
2022/06/12 10:15:54;;;;;;;1.83;0.70;;;28.20;48.40;;;29.10;28.59;101605.25;5090737;29;20119;-81
2022/06/12 10:18:33;;;;;;;1.27;0.50;;;28.20;49.40;;;29.04;28.45;101600.06;5091235;29;20143;-81
2022/06/12 10:21:11;;;;;;;1.15;0.40;;;28.20;49.10;;;29.14;27.85;101600.66;5092576;29;20067;-80
2022/06/12 10:23:43;;;;;;;1.42;0.45;;;28.20;48.60;;;29.13;27.41;101593.53;5095208;29;20058;-81
2022/06/12 10:26:23;;;;;;;1.88;0.60;;;28.20;48.10;;;29.16;27.52;101596.16;5095495;29;20110;-81
2022/06/12 10:29:05;;;;;;;;;;;28.20;48.30;;;29.19;27.66;101594.22;5096676;29;20559;-82
2022/06/12 10:31:49;;;;;;;1.33;0.70;;;28.20;48.40;;;29.30;27.83;101590.34;5094782;29;19974;-82
2022/06/12 10:34:24;;;;;;;2.10;0.73;;;28.30;48.70;;;29.36;27.71;101601.78;5093805;29;20067;-83
2022/06/12 10:36:57;;;;;;;0.80;0.50;;;28.40;48.30;;;29.28;28.00;101598.47;5110989;29;20048;-85
2022/06/12 10:39:29;;;;;;;2.20;0.70;;;28.40;48.70;;;29.24;29.03;101588.75;5107998;29;20106;-83
2022/06/12 10:42:07;;;;;;;0.52;0.40;;;28.30;49.60;;;29.12;29.44;101589.09;5113296;29;20051;-82
2022/06/12 10:44:44;;;;;;;3.17;1.02;;;28.20;50.00;;;29.09;28.90;101597.25;5108682;29;20050;-80
2022/06/12 10:47:21;;;;;;;41.38;12.70;;;28.20;49.40;;;29.03;28.19;101592.06;5101411;29;20052;-80
2022/06/12 10:50:20;;;;;;;37.13;11.85;;;28.10;48.90;;;28.86;27.47;101588.03;5103661;29;20138;-81
2022/06/12 10:53:01;;;;;;;53.30;15.60;;;28.00;47.60;;;28.90;28.00;101587.03;5100201;29;20056;-79
2022/06/12 10:55:52;;;;;;;87.65;28.77;;;27.90;48.60;;;28.98;30.09;101580.59;5110229;29;20050;-81
2022/06/12 10:59:03;;;;;;;140.88;43.67;;;28.00;50.60;;;28.89;29.84;101577.22;5108426;29;20060;-81
2022/06/12 11:01:48;;;;;;;64.72;20.60;;;28.00;50.50;;;28.89;28.73;101573.66;5104327;29;20056;-83
2022/06/12 11:04:34;;;;;;;58.53;19.10;;;27.90;49.30;;;28.81;28.82;101576.53;5112969;29;20051;-81
2022/06/12 11:07:20;;;;;;;35.88;11.73;;;27.90;49.60;;;28.85;28.78;101570.16;5113170;29;20483;-82
2022/06/12 11:10:05;;;;;;;29.48;9.10;;;27.90;49.50;;;28.97;28.45;101573.47;5112892;29;20062;-82
2022/06/12 11:13:09;;;;;;;24.90;7.97;;;28.00;49.30;;;28.74;28.14;101558.84;5112262;29;20056;-80
2022/06/12 11:16:10;;;;;;;22.85;7.47;;;27.80;48.60;;;28.60;28.40;101558.38;5112948;29;20047;-82